Time;durP1;ratioP1;P1;durP2;ratioP2;P2;SDS_P1;SDS_P2;PMS_P1;PMS_P2;Temp;Humidity;BMP_temperature;BMP_pressure;BME280_temperature;BME280_humidity;BME280_pressure;Samples;Min_cycle;Max_cycle;Signal;HPM_P1;HPM_P2
2022/09/12 00:00:24;;;;;;;7.60;5.43;;;;;;;11.07;100.00;99152.88;5100769;28;20058;-79
2022/09/12 00:02:52;;;;;;;6.10;4.70;;;;;;;10.94;100.00;99148.94;5096904;28;20050;-79
2022/09/12 00:05:19;;;;;;;7.28;5.45;;;;;;;10.74;100.00;99148.63;5099787;28;20502;-79
2022/09/12 00:07:47;;;;;;;8.75;5.65;;;;;;;10.75;100.00;99154.94;5103890;28;20459;-78
2022/09/12 00:10:14;;;;;;;8.88;5.55;;;;;;;10.82;100.00;99144.13;5108253;28;20108;-78
2022/09/12 00:12:40;;;;;;;8.65;4.90;;;;;;;10.85;100.00;99150.03;5105143;28;20086;-78
2022/09/12 00:15:08;;;;;;;10.75;5.72;;;;;;;10.81;100.00;99159.63;5101904;28;20055;-78
2022/09/12 00:17:35;;;;;;;8.18;5.03;;;;;;;10.79;100.00;99156.22;5107398;28;20101;-79
2022/09/12 00:20:02;;;;;;;11.63;5.55;;;;;;;10.84;100.00;99151.09;5097793;28;20434;-78
2022/09/12 00:22:29;;;;;;;10.45;5.22;;;;;;;10.86;100.00;99145.47;5100780;28;20047;-78
2022/09/12 00:24:57;;;;;;;7.03;5.15;;;;;;;10.90;100.00;99152.19;5108583;28;20048;-78
2022/09/12 00:27:23;;;;;;;10.35;6.35;;;;;;;10.92;100.00;99145.53;5087785;28;20103;-78
2022/09/12 00:29:50;;;;;;;6.20;5.38;;;;;;;10.92;100.00;99150.97;5101722;28;20138;-78
2022/09/12 00:32:16;;;;;;;9.07;5.68;;;;;;;10.81;100.00;99146.03;5104195;28;20056;-78
2022/09/12 00:34:43;;;;;;;7.03;5.05;;;;;;;10.79;100.00;99153.50;5103407;28;20043;-78
2022/09/12 00:37:09;;;;;;;8.98;5.10;;;;;;;10.61;100.00;99140.25;5105926;28;20039;-78
2022/09/12 00:39:36;;;;;;;7.57;5.63;;;;;;;10.72;100.00;99142.53;5108732;27;20097;-78
2022/09/12 00:42:04;;;;;;;8.52;5.60;;;;;;;10.74;100.00;99150.50;5110134;28;20100;-78
2022/09/12 00:44:45;;;;;;;7.10;5.00;;;;;;;10.80;100.00;99144.31;5105809;27;20050;-78
2022/09/12 00:47:17;;;;;;;7.30;5.25;;;;;;;10.86;100.00;99140.03;5103459;28;20058;-78
2022/09/12 00:49:49;;;;;;;11.80;5.50;;;;;;;10.77;100.00;99131.94;5110344;28;20051;-78
2022/09/12 00:52:19;;;;;;;12.60;5.13;;;;;;;10.62;100.00;99140.06;5109046;27;20707;-79
2022/09/12 00:54:49;;;;;;;7.03;5.00;;;;;;;10.55;100.00;99135.56;5108737;28;20036;-78
2022/09/12 00:57:17;;;;;;;;;;;;;;;10.50;100.00;99136.13;5105781;28;20096;-78
2022/09/12 00:59:49;;;;;;;6.15;4.90;;;;;;;10.45;100.00;99131.25;5103068;27;19927;-78
2022/09/12 01:02:16;;;;;;;8.55;5.20;;;;;;;10.50;100.00;99125.25;5101438;27;20515;-79
2022/09/12 01:04:44;;;;;;;8.98;5.55;;;;;;;10.38;100.00;99121.31;5104134;27;20048;-78
2022/09/12 01:07:11;;;;;;;7.88;5.38;;;;;;;10.44;100.00;99128.72;5103283;27;20112;-78
2022/09/12 01:09:42;;;;;;;10.30;5.90;;;;;;;10.52;100.00;99123.19;5116495;27;20043;-79
2022/09/12 01:12:10;;;;;;;7.25;5.20;;;;;;;10.55;100.00;99125.56;5106627;27;20043;-79
2022/09/12 01:14:38;;;;;;;9.32;5.80;;;;;;;10.60;100.00;99112.25;5107633;27;20043;-78
2022/09/12 01:17:05;;;;;;;6.90;5.30;;;;;;;10.58;100.00;99114.31;5105963;28;20048;-78
2022/09/12 01:20:02;;;;;;;6.90;5.65;;;;;;;10.64;100.00;99115.44;5100057;28;20051;-78
2022/09/12 01:22:53;;;;;;;7.95;5.18;;;;;;;10.60;100.00;99117.69;5101000;28;20109;-78
2022/09/12 01:25:28;;;;;;;10.20;5.22;;;;;;;10.42;100.00;99111.78;5105011;27;20051;-78
2022/09/12 01:28:17;;;;;;;7.10;5.15;;;;;;;10.42;100.00;99117.19;5092482;28;20054;-78
2022/09/12 01:30:55;;;;;;;5.65;4.38;;;;;;;10.39;100.00;99110.25;5101347;28;20047;-78
2022/09/12 01:33:34;;;;;;;9.30;4.63;;;;;;;10.26;100.00;99099.97;5103860;28;20054;-78
2022/09/12 01:36:23;;;;;;;8.77;5.32;;;;;;;10.21;100.00;99107.84;5109626;28;20487;-78
2022/09/12 01:38:58;;;;;;;9.20;4.60;;;;;;;10.16;100.00;99104.84;5104073;27;20051;-78
2022/09/12 01:41:28;;;;;;;10.02;4.93;;;;;;;10.10;100.00;99108.28;5103678;28;20039;-78
2022/09/12 01:44:04;;;;;;;10.55;5.28;;;;;;;10.04;100.00;99106.28;5106921;28;20459;-78
2022/09/12 01:46:38;;;;;;;6.60;4.97;;;;;;;9.95;100.00;99105.53;5101306;28;20078;-78
2022/09/12 01:49:13;;;;;;;7.57;4.65;;;;;;;10.01;100.00;99117.53;5102767;28;20631;-78
2022/09/12 01:51:44;;;;;;;8.13;5.63;;;;;;;10.02;100.00;99113.78;5105254;28;20120;-78
2022/09/12 01:54:17;;;;;;;6.30;5.00;;;;;;;9.95;100.00;99108.25;5101241;27;20518;-78
2022/09/12 01:56:46;;;;;;;8.90;5.53;;;;;;;9.91;100.00;99106.91;5103489;27;20259;-78
2022/09/12 01:59:18;;;;;;;7.20;5.07;;;;;;;9.83;100.00;99102.41;5113562;27;20101;-78
2022/09/12 02:01:53;;;;;;;7.20;4.93;;;;;;;9.87;100.00;99102.88;5105045;27;20043;-78
2022/09/12 02:04:23;;;;;;;8.02;4.93;;;;;;;9.94;100.00;99098.41;5105148;27;20062;-78
2022/09/12 02:06:52;;;;;;;6.70;4.97;;;;;;;9.87;100.00;99092.00;5101877;27;20109;-78
2022/09/12 02:09:23;;;;;;;5.35;4.82;;;;;;;9.97;100.00;99098.03;5113637;27;20046;-78
2022/09/12 02:11:53;;;;;;;6.80;5.55;;;;;;;10.04;100.00;99096.28;5110728;28;20047;-78
2022/09/12 02:14:23;;;;;;;10.82;4.88;;;;;;;9.96;100.00;99081.94;5112060;28;20108;-78
2022/09/12 02:16:52;;;;;;;;;;;;;;;10.02;100.00;99082.03;5111972;28;20055;-78
2022/09/12 02:19:23;;;;;;;8.52;4.95;;;;;;;10.04;100.00;99087.28;5111613;28;20322;-78
2022/09/12 02:21:53;;;;;;;8.02;5.05;;;;;;;9.88;100.00;99082.84;5108373;28;20479;-78
2022/09/12 02:24:22;;;;;;;9.57;4.97;;;;;;;9.89;100.00;99085.38;5095473;27;20098;-78
2022/09/12 02:26:54;;;;;;;7.63;5.20;;;;;;;9.89;100.00;99077.25;5102590;27;20450;-78
2022/09/12 02:29:21;;;;;;;7.82;5.13;;;;;;;9.81;100.00;99073.75;5103572;28;20043;-78
2022/09/12 02:31:52;;;;;;;7.47;5.38;;;;;;;9.70;100.00;99072.31;5111410;27;20127;-78
2022/09/12 02:34:29;;;;;;;7.78;4.95;;;;;;;9.70;100.00;99083.16;5104095;27;20421;-78
2022/09/12 02:37:06;;;;;;;8.70;4.70;;;;;;;9.71;100.00;99077.56;5102663;27;20047;-78
2022/09/12 02:39:33;;;;;;;9.75;4.75;;;;;;;9.75;100.00;99075.31;5101848;28;20051;-78
2022/09/12 02:42:02;;;;;;;6.20;4.85;;;;;;;9.79;100.00;99075.81;5111048;28;20494;-78
2022/09/12 02:44:32;;;;;;;7.90;4.97;;;;;;;9.81;100.00;99069.16;5111097;27;20097;-78
2022/09/12 02:47:05;;;;;;;7.47;5.55;;;;;;;9.88;100.00;99072.81;5098185;27;20039;-78
2022/09/12 02:49:33;;;;;;;7.63;5.43;;;;;;;9.83;100.00;99067.09;5102759;28;20052;-78
2022/09/12 02:52:02;;;;;;;7.35;5.63;;;;;;;9.82;100.00;99064.56;5106521;27;20048;-78
2022/09/12 02:54:29;;;;;;;6.28;4.78;;;;;;;9.62;100.00;99065.06;5110266;27;20056;-78
2022/09/12 02:56:56;;;;;;;7.43;5.20;;;;;;;9.50;100.00;99067.34;5110474;27;20051;-78
2022/09/12 02:59:24;;;;;;;7.97;5.60;;;;;;;9.50;100.00;99061.94;5111168;27;20055;-78
2022/09/12 03:02:05;;;;;;;7.65;5.13;;;;;;;9.65;100.00;99064.72;5099429;28;20052;-78
2022/09/12 03:04:47;;;;;;;8.55;5.00;;;;;;;9.61;100.00;99062.53;5096076;28;20048;-78
2022/09/12 03:07:20;;;;;;;9.85;4.90;;;;;;;9.54;100.00;99067.81;5109617;27;20047;-77
2022/09/12 03:09:56;;;;;;;9.30;5.93;;;;;;;9.47;100.00;99066.84;5099439;28;20553;-78
2022/09/12 03:12:39;;;;;;;10.75;4.68;;;;;;;9.44;100.00;99062.66;5108880;28;20116;-78
2022/09/12 03:15:30;;;;;;;6.43;5.05;;;;;;;9.53;100.00;99061.56;5110935;28;20127;-77
2022/09/12 03:18:08;;;;;;;9.88;5.07;;;;;;;9.48;100.00;99061.25;5103439;28;20043;-78
2022/09/12 03:20:46;;;;;;;7.75;4.80;;;;;;;9.46;100.00;99057.88;5112681;27;20105;-78
2022/09/12 03:23:22;;;;;;;8.20;5.53;;;;;;;9.34;100.00;99062.03;5095677;28;20055;-78
2022/09/12 03:25:55;;;;;;;10.50;5.18;;;;;;;9.22;100.00;99075.16;5110508;28;20614;-78
2022/09/12 03:28:22;;;;;;;10.93;5.35;;;;;;;9.33;100.00;99072.06;5108732;28;20470;-77
2022/09/12 03:30:52;;;;;;;7.72;5.22;;;;;;;9.34;100.00;99064.75;5110795;28;20112;-77
2022/09/12 03:33:20;;;;;;;8.93;5.28;;;;;;;9.36;100.00;99073.53;5109850;28;20052;-77
2022/09/12 03:35:49;;;;;;;11.50;5.30;;;;;;;9.20;100.00;99069.91;5110299;28;20056;-78
2022/09/12 03:38:16;;;;;;;7.43;5.70;;;;;;;9.07;100.00;99063.38;5109967;28;20470;-77
2022/09/12 03:40:42;;;;;;;9.25;5.13;;;;;;;8.91;100.00;99062.44;5110501;28;20490;-78
2022/09/12 03:43:10;;;;;;;10.10;5.90;;;;;;;9.13;100.00;99071.63;5109126;28;20128;-78
2022/09/12 03:45:37;;;;;;;15.77;7.60;;;;;;;9.16;100.00;99070.44;5100957;28;20074;-78
2022/09/12 03:48:04;;;;;;;11.30;7.95;;;;;;;9.16;100.00;99065.84;5104356;28;20040;-78
2022/09/12 03:50:30;;;;;;;9.88;5.75;;;;;;;9.12;100.00;99069.97;5102299;28;20048;-77
2022/09/12 03:53:00;;;;;;;7.57;5.22;;;;;;;9.05;100.00;99060.84;5111502;28;20040;-77
2022/09/12 03:55:26;;;;;;;10.57;5.50;;;;;;;9.07;100.00;99072.34;5112634;28;20060;-78
2022/09/12 03:57:53;;;;;;;8.48;5.50;;;;;;;9.10;100.00;99068.44;5112137;28;20784;-77
2022/09/12 04:00:19;;;;;;;6.63;5.38;;;;;;;9.01;100.00;99054.91;5099835;28;20051;-77
2022/09/12 04:02:46;;;;;;;8.98;5.72;;;;;;;9.04;100.00;99068.13;5100120;28;20096;-77
2022/09/12 04:05:15;;;;;;;7.70;5.60;;;;;;;8.94;100.00;99063.94;5109692;28;20517;-77
2022/09/12 04:07:41;;;;;;;8.23;5.37;;;;;;;8.89;100.00;99064.47;5100453;28;20121;-77
2022/09/12 04:10:10;;;;;;;8.40;5.68;;;;;;;8.86;100.00;99054.81;5103032;28;20455;-77
2022/09/12 04:12:38;;;;;;;6.20;5.03;;;;;;;8.89;100.00;99060.94;5097953;28;20052;-77
2022/09/12 04:15:06;;;;;;;17.60;5.60;;;;;;;8.96;100.00;99064.63;5111051;27;20567;-77
2022/09/12 04:17:34;;;;;;;7.60;5.00;;;;;;;8.95;100.00;99068.34;5111410;27;20499;-77
2022/09/12 04:20:00;;;;;;;11.38;5.97;;;;;;;9.10;100.00;99068.44;5108945;27;20052;-77
2022/09/12 04:22:28;;;;;;;10.05;5.57;;;;;;;9.05;100.00;99063.56;5101265;28;20051;-77
2022/09/12 04:24:55;;;;;;;11.15;4.88;;;;;;;9.01;100.00;99060.34;5114166;27;20048;-77
2022/09/12 04:27:23;;;;;;;7.95;5.38;;;;;;;9.02;100.00;99072.06;5106916;28;20044;-77
2022/09/12 04:29:49;;;;;;;7.32;5.63;;;;;;;8.93;100.00;99073.13;5114141;27;20059;-77
2022/09/12 04:32:16;;;;;;;7.20;4.93;;;;;;;8.90;100.00;99076.16;5104818;27;20048;-77
2022/09/12 04:34:43;;;;;;;7.22;4.97;;;;;;;8.90;100.00;99073.44;5104074;27;20044;-77
2022/09/12 04:37:10;;;;;;;7.70;5.50;;;;;;;8.83;100.00;99070.59;5100186;28;20055;-77
2022/09/12 04:39:36;;;;;;;6.75;5.22;;;;;;;8.84;100.00;99065.00;5114150;27;20051;-77
2022/09/12 04:42:03;;;;;;;8.02;5.35;;;;;;;8.85;100.00;99073.97;5113497;27;20089;-77
2022/09/12 04:44:31;;;;;;;7.13;5.38;;;;;;;8.72;100.00;99055.59;5105847;28;20055;-78
2022/09/12 04:46:58;;;;;;;8.98;5.45;;;;;;;8.83;100.00;99076.88;5111623;27;20062;-78
2022/09/12 04:49:24;;;;;;;7.40;5.75;;;;;;;8.82;100.00;99068.91;5105437;28;20048;-79
2022/09/12 04:51:53;;;;;;;10.85;5.57;;;;;;;8.74;100.00;99056.25;5102571;27;20047;-79
2022/09/12 04:54:20;;;;;;;10.48;5.88;;;;;;;8.79;100.00;99053.00;5097775;28;20052;-79
2022/09/12 04:56:49;;;;;;;7.55;5.15;;;;;;;8.77;100.00;99066.72;5110356;27;20044;-77
2022/09/12 04:59:18;;;;;;;10.02;6.07;;;;;;;8.58;100.00;99049.03;5110915;27;20559;-77
2022/09/12 05:01:46;;;;;;;8.73;6.22;;;;;;;8.60;100.00;99057.00;5101275;27;20126;-77
2022/09/12 05:04:13;;;;;;;10.13;6.15;;;;;;;8.71;100.00;99062.00;5106936;27;20051;-77
2022/09/12 05:06:41;;;;;;;9.18;6.35;;;;;;;8.79;100.00;99064.72;5104827;28;20051;-77
2022/09/12 05:09:11;;;;;;;10.48;6.25;;;;;;;8.75;100.00;99055.22;5115426;27;20075;-78
2022/09/12 05:11:39;;;;;;;11.65;5.70;;;;;;;8.84;100.00;99064.19;5124878;27;20054;-77
2022/09/12 05:14:06;;;;;;;13.23;6.95;;;;;;;8.79;100.00;99056.56;5116992;27;20051;-78
2022/09/12 05:16:33;;;;;;;8.25;6.00;;;;;;;8.90;100.00;99068.88;5116384;27;20039;-78
2022/09/12 05:19:01;;;;;;;7.90;6.22;;;;;;;8.94;100.00;99063.94;5094936;28;20078;-77
2022/09/12 05:21:28;;;;;;;9.73;6.72;;;;;;;8.96;100.00;99061.91;5113734;27;20048;-78
2022/09/12 05:23:58;;;;;;;7.70;5.75;;;;;;;8.97;100.00;99061.75;5101637;27;20046;-78
2022/09/12 05:26:25;;;;;;;9.57;6.05;;;;;;;8.75;100.00;99036.25;5104738;27;20558;-78
2022/09/12 05:28:52;;;;;;;10.98;5.95;;;;;;;8.71;100.00;99061.19;5111723;27;20050;-77
2022/09/12 05:31:20;;;;;;;16.35;6.57;;;;;;;8.83;100.00;99062.47;5107321;27;20048;-78
2022/09/12 05:33:49;;;;;;;13.40;6.07;;;;;;;8.76;100.00;99050.63;5112446;28;20058;-78
2022/09/12 05:36:19;;;;;;;9.48;6.55;;;;;;;8.93;100.00;99065.81;5114832;28;20043;-78
2022/09/12 05:38:46;;;;;;;10.35;5.82;;;;;;;8.86;100.00;99057.53;5113384;28;20043;-78
2022/09/12 05:41:14;;;;;;;13.35;6.18;;;;;;;8.90;100.00;99063.47;5112819;28;20051;-78
2022/09/12 05:43:42;;;;;;;7.80;5.65;;;;;;;9.13;100.00;99082.50;5114100;28;20384;-78
2022/09/12 05:46:11;;;;;;;9.00;6.10;;;;;;;9.14;100.00;99077.94;5114719;28;20052;-78
2022/09/12 05:48:39;;;;;;;10.27;6.30;;;;;;;9.14;100.00;99065.22;5101323;28;20052;-77
2022/09/12 05:51:07;;;;;;;10.00;5.95;;;;;;;9.18;100.00;99068.41;5113707;28;20397;-78
2022/09/12 05:53:36;;;;;;;9.20;6.22;;;;;;;9.20;100.00;99067.19;5111067;28;20314;-78
2022/09/12 05:56:08;;;;;;;9.60;6.38;;;;;;;9.33;100.00;99076.63;5100477;28;20059;-79
2022/09/12 05:58:36;;;;;;;13.35;6.82;;;;;;;9.41;100.00;99082.00;5104581;27;20044;-77
2022/09/12 06:01:07;;;;;;;14.02;8.57;;;;;;;9.49;100.00;99072.97;5113150;27;20100;-77
2022/09/12 06:03:35;;;;;;;8.95;6.95;;;;;;;9.57;100.00;99059.31;5109134;28;20430;-78
2022/09/12 06:06:03;;;;;;;12.00;7.78;;;;;;;9.70;100.00;99072.31;5104349;28;20047;-78
2022/09/12 06:08:31;;;;;;;9.38;6.38;;;;;;;9.69;100.00;99076.03;5112164;28;20043;-78
2022/09/12 06:11:05;;;;;;;11.93;7.15;;;;;;;9.84;100.00;99076.09;5110164;28;20043;-78
2022/09/12 06:13:32;;;;;;;9.55;7.53;;;;;;;9.94;100.00;99070.41;5110245;28;20051;-78
2022/09/12 06:16:07;;;;;;;10.32;7.15;;;;;;;9.99;100.00;99051.69;5103671;28;20048;-78
2022/09/12 06:18:34;;;;;;;12.95;7.50;;;;;;;10.10;100.00;99062.97;5106481;27;20051;-77
2022/09/12 06:21:03;;;;;;;11.77;7.38;;;;;;;10.16;100.00;99063.25;5107287;28;20048;-78
2022/09/12 06:23:29;;;;;;;12.13;7.60;;;;;;;10.22;100.00;99057.06;5111313;28;20108;-78
2022/09/12 06:25:56;;;;;;;16.77;9.23;;;;;;;10.27;100.00;99060.09;5102222;28;20066;-78
2022/09/12 06:28:24;;;;;;;14.40;9.10;;;;;;;10.32;100.00;99059.53;5109685;28;20138;-78
2022/09/12 06:30:50;;;;;;;11.95;7.57;;;;;;;10.43;100.00;99050.94;5106603;28;20052;-78
2022/09/12 06:33:17;;;;;;;11.80;7.63;;;;;;;10.64;100.00;99055.63;5106125;28;20483;-77
2022/09/12 06:35:44;;;;;;;15.32;7.85;;;;;;;10.73;100.00;99053.66;5108051;28;20044;-77
2022/09/12 06:38:11;;;;;;;15.07;7.45;;;;;;;10.89;100.00;99058.06;5101997;28;20165;-77
2022/09/12 06:40:42;;;;;;;11.82;7.85;;;;;;;11.22;100.00;99061.16;5111700;28;20080;-77
2022/09/12 06:43:09;;;;;;;13.30;8.18;;;;;;;11.38;100.00;99043.78;5109279;28;20589;-77
2022/09/12 06:45:37;;;;;;;15.23;8.55;;;;;;;11.84;100.00;99056.97;5107873;27;20040;-78
2022/09/12 06:48:04;;;;;;;16.45;8.30;;;;;;;12.33;100.00;99054.44;5103058;28;20052;-77
2022/09/12 06:50:31;;;;;;;12.93;8.13;;;;;;;12.37;100.00;99037.53;5102920;28;20054;-77
2022/09/12 06:52:57;;;;;;;11.00;8.35;;;;;;;12.47;100.00;99048.06;5095819;28;20043;-77
2022/09/12 06:55:24;;;;;;;14.55;7.80;;;;;;;12.87;100.00;99052.88;5098276;28;20052;-78
2022/09/12 06:57:51;;;;;;;11.32;7.65;;;;;;;13.10;100.00;99049.84;5108185;28;20127;-78
2022/09/12 07:00:17;;;;;;;11.00;7.40;;;;;;;13.30;100.00;99069.03;5110024;28;20039;-78
2022/09/12 07:02:45;;;;;;;10.10;6.90;;;;;;;13.42;100.00;99058.38;5108569;28;20051;-78
2022/09/12 07:05:12;;;;;;;14.65;6.95;;;;;;;13.50;100.00;99063.63;5095861;28;20055;-78
2022/09/12 07:07:39;;;;;;;13.65;6.72;;;;;;;13.45;100.00;99063.44;5110193;28;20047;-78
2022/09/12 07:10:06;;;;;;;13.45;6.75;;;;;;;13.61;100.00;99059.50;5106003;28;20056;-78
2022/09/12 07:12:33;;;;;;;16.77;6.78;;;;;;;13.65;100.00;99059.91;5104563;28;20055;-78
2022/09/12 07:14:59;;;;;;;13.30;7.45;;;;;;;13.70;100.00;99054.66;5103205;28;20055;-78
2022/09/12 07:17:26;;;;;;;22.58;8.65;;;;;;;13.84;100.00;99059.09;5110425;28;20044;-78
2022/09/12 07:19:54;;;;;;;12.93;6.97;;;;;;;14.05;100.00;99062.69;5104233;28;20048;-78
2022/09/12 07:22:20;;;;;;;10.82;7.45;;;;;;;14.06;100.00;99054.28;5107130;27;20051;-78
2022/09/12 07:24:47;;;;;;;15.48;6.90;;;;;;;14.11;100.00;99051.75;5098292;28;20494;-78
2022/09/12 07:27:13;;;;;;;11.98;8.07;;;;;;;13.99;100.00;99045.22;5106106;28;20047;-78
2022/09/12 07:29:40;;;;;;;11.45;7.07;;;;;;;14.14;100.00;99062.25;5108386;28;20047;-78
2022/09/12 07:32:07;;;;;;;10.43;6.72;;;;;;;14.10;100.00;99058.25;5104729;28;20410;-78
2022/09/12 07:34:35;;;;;;;16.13;7.82;;;;;;;14.42;100.00;99054.84;5096507;28;20452;-78
2022/09/12 07:37:03;;;;;;;11.23;7.30;;;;;;;14.44;100.00;99048.13;5107241;28;20478;-78
2022/09/12 07:39:29;;;;;;;15.73;7.55;;;;;;;14.54;100.00;99055.88;5107257;28;20140;-78
2022/09/12 07:41:56;;;;;;;13.57;7.07;;;;;;;14.57;100.00;99057.38;5101353;28;20526;-78
2022/09/12 07:44:23;;;;;;;17.42;8.65;;;;;;;14.78;100.00;99056.28;5109608;28;20491;-78
2022/09/12 07:46:51;;;;;;;15.63;8.20;;;;;;;14.92;100.00;99046.13;5107032;28;20048;-78
2022/09/12 07:49:17;;;;;;;20.30;9.27;;;;;;;15.03;100.00;99050.94;5111949;27;20070;-79
2022/09/12 07:51:44;;;;;;;15.57;10.60;;;;;;;15.00;100.00;99034.97;5112075;27;20437;-78
2022/09/12 07:54:12;;;;;;;12.20;8.30;;;;;;;15.04;100.00;99038.94;5105089;28;20368;-78
2022/09/12 07:56:39;;;;;;;14.77;8.32;;;;;;;14.90;100.00;99032.66;5111896;28;20419;-78
2022/09/12 07:59:06;;;;;;;11.18;7.28;;;;;;;15.03;100.00;99038.09;5113648;28;20044;-78
2022/09/12 08:04:56;;;;;;;10.88;6.03;;;;;;;15.17;100.00;99041.59;5100949;28;20479;-79
2022/09/12 08:07:22;;;;;;;9.57;6.18;;;;;;;15.27;100.00;99038.41;5114426;28;20047;-79
2022/09/12 08:09:52;;;;;;;10.05;7.05;;;;;;;15.38;100.00;99048.66;5108184;28;20055;-79
2022/09/12 08:12:19;;;;;;;9.70;6.25;;;;;;;15.57;100.00;99049.63;5113506;28;20070;-79
2022/09/12 08:14:46;;;;;;;8.10;6.18;;;;;;;15.66;100.00;99054.84;5108979;28;20048;-79
2022/09/12 08:17:14;;;;;;;10.85;5.75;;;;;;;15.79;100.00;99062.97;5108600;27;20051;-79
2022/09/12 08:19:40;;;;;;;7.60;5.80;;;;;;;15.81;100.00;99038.94;5112864;28;20445;-78
2022/09/12 08:22:07;;;;;;;8.20;5.78;;;;;;;16.04;99.64;99046.56;5112727;28;20070;-79
2022/09/12 08:24:33;;;;;;;9.68;6.18;;;;;;;16.28;97.76;99047.63;5103464;27;20138;-79
2022/09/12 08:27:01;;;;;;;22.02;6.95;;;;;;;16.24;97.99;99034.59;5108045;27;20056;-79
2022/09/12 08:29:28;;;;;;;8.43;5.97;;;;;;;16.46;95.21;99054.22;5108186;28;20050;-79
2022/09/12 08:31:55;;;;;;;10.02;6.50;;;;;;;16.53;97.28;99038.53;5108375;27;20384;-79
2022/09/12 08:34:23;;;;;;;7.68;5.72;;;;;;;16.56;94.63;99034.47;5093394;28;20135;-79
2022/09/12 08:36:50;;;;;;;7.93;5.90;;;;;;;16.63;94.44;99041.59;5110342;28;20397;-79
2022/09/12 08:39:16;;;;;;;7.25;5.65;;;;;;;16.86;93.20;99050.22;5110343;27;20051;-79
2022/09/12 08:41:45;;;;;;;10.35;6.00;;;;;;;16.82;93.56;99036.13;5106887;28;20050;-80
2022/09/12 08:44:38;;;;;;;6.88;5.93;;;;;;;16.93;91.12;99043.59;5111008;27;20086;-79
2022/09/12 08:47:15;;;;;;;8.55;5.15;;;;;;;16.96;92.24;99029.41;5105841;28;20051;-80
2022/09/12 08:49:52;;;;;;;10.40;6.82;;;;;;;17.17;90.96;99035.50;5109023;28;20122;-79
2022/09/12 08:52:23;;;;;;;9.10;5.60;;;;;;;17.13;89.36;99037.03;5110439;28;20048;-79
2022/09/12 08:54:50;;;;;;;9.77;6.10;;;;;;;17.21;91.25;99039.47;5110437;28;20761;-80
2022/09/12 08:57:17;;;;;;;6.30;4.72;;;;;;;17.29;87.94;99033.63;5111940;28;20054;-80
2022/09/12 08:59:47;;;;;;;7.68;5.18;;;;;;;17.27;86.99;99027.56;5106987;28;20062;-80
2022/09/12 09:02:33;;;;;;;8.13;4.88;;;;;;;17.36;84.50;99027.22;5111259;28;20047;-78
2022/09/12 09:05:11;;;;;;;5.40;4.47;;;;;;;17.66;83.55;99030.81;5105125;28;20379;-80
2022/09/12 09:07:59;;;;;;;6.90;4.30;;;;;;;17.74;82.69;99026.06;5111009;28;20561;-80
2022/09/12 09:10:36;;;;;;;5.05;4.38;;;;;;;17.80;81.34;99023.19;5107432;28;20047;-79
2022/09/12 09:14:46;;;;;;;5.57;4.32;;;;;;;17.95;79.70;99025.50;5093316;28;20132;-79
2022/09/12 09:16:12;;;;;;;6.15;4.50;;;;;;;18.05;78.23;99016.69;5105850;28;20130;-80
2022/09/12 09:18:40;;;;;;;6.18;3.90;;;;;;;18.21;79.64;99018.72;5101012;28;20067;-79
2022/09/12 09:21:23;;;;;;;9.63;4.60;;;;;;;18.31;77.79;99015.38;5109916;27;20625;-80
2022/09/12 09:23:58;;;;;;;5.07;4.30;;;;;;;18.38;79.14;99023.50;5112680;27;20048;-80
2022/09/12 09:26:32;;;;;;;9.32;3.55;;;;;;;18.50;76.71;99012.50;5112458;28;20043;-80
2022/09/12 09:29:03;;;;;;;3.88;3.47;;;;;;;18.65;77.42;99006.50;5105051;28;20061;-80
2022/09/12 09:31:37;;;;;;;4.88;3.63;;;;;;;18.75;74.90;99013.06;5095614;28;20052;-80
2022/09/12 09:34:13;;;;;;;6.35;3.65;;;;;;;18.75;74.75;99013.06;5105084;27;20051;-80
2022/09/12 09:36:48;;;;;;;4.18;3.20;;;;;;;18.70;73.59;99006.63;5108692;27;20130;-80
2022/09/12 09:39:25;;;;;;;4.30;3.78;;;;;;;18.87;71.70;99009.50;5100531;28;20050;-80
2022/09/12 09:42:07;;;;;;;4.13;3.20;;;;;;;18.95;70.04;99009.09;5111868;28;20044;-81
2022/09/12 09:44:34;;;;;;;3.38;3.05;;;;;;;19.14;69.21;99011.69;5106257;28;20044;-80
2022/09/12 09:47:02;;;;;;;5.30;3.10;;;;;;;19.27;68.82;99011.41;5105223;28;20112;-81
2022/09/12 09:49:31;;;;;;;5.28;3.55;;;;;;;19.44;71.56;99009.53;5110472;27;20070;-81
2022/09/12 09:51:59;;;;;;;4.90;3.42;;;;;;;19.60;69.64;99007.03;5109247;28;20463;-80
2022/09/12 09:54:34;;;;;;;5.32;4.13;;;;;;;19.69;68.82;99000.06;5121819;27;20073;-80
2022/09/12 09:57:00;;;;;;;4.57;2.72;;;;;;;19.68;66.11;99006.66;5094297;28;20053;-81
2022/09/12 09:59:29;;;;;;;3.88;3.25;;;;;;;19.74;67.50;98989.09;5114425;27;20425;-81
2022/09/12 10:02:02;;;;;;;7.23;3.37;;;;;;;19.83;66.73;98997.00;5102276;28;20058;-80
2022/09/12 10:04:32;;;;;;;6.60;3.30;;;;;;;20.02;66.08;99005.88;5108153;28;20154;-80
2022/09/12 10:07:01;;;;;;;3.85;3.08;;;;;;;20.08;65.39;99002.97;5106351;28;20047;-81
2022/09/12 10:09:31;;;;;;;6.70;3.00;;;;;;;20.20;65.02;99013.06;5114112;27;20410;-81
2022/09/12 10:12:00;;;;;;;3.17;2.75;;;;;;;20.22;65.25;99008.97;5112588;28;20051;-81
2022/09/12 10:14:37;;;;;;;3.53;2.60;;;;;;;20.38;61.73;99001.75;5113940;28;20043;-81
2022/09/12 10:17:24;;;;;;;5.40;2.50;;;;;;;20.62;58.99;99001.53;5114402;27;20135;-80
2022/09/12 10:19:52;;;;;;;3.30;2.42;;;;;;;20.68;59.07;98997.78;5108102;28;20055;-81
2022/09/12 10:22:22;;;;;;;3.35;2.70;;;;;;;20.67;60.21;98990.56;5094598;28;20079;-80
2022/09/12 10:24:51;;;;;;;3.00;2.30;;;;;;;20.61;57.07;98989.66;5106466;28;20837;-81
2022/09/12 10:27:20;;;;;;;3.90;2.75;;;;;;;20.67;56.25;98996.94;5113549;28;20048;-81
2022/09/12 10:29:50;;;;;;;3.38;2.50;;;;;;;20.69;54.67;98985.66;5113792;28;20100;-80
2022/09/12 10:32:25;;;;;;;;;;;;;;;20.85;56.25;98989.44;5118935;27;20050;-81
2022/09/12 10:34:58;;;;;;;4.22;2.58;;;;;;;20.97;56.20;98997.59;5110095;27;20453;-80
2022/09/12 10:37:37;;;;;;;2.92;2.50;;;;;;;21.02;56.88;99000.44;5112653;28;20513;-80
2022/09/12 10:40:06;;;;;;;4.78;2.25;;;;;;;21.00;55.50;98986.88;5101160;27;20048;-81
2022/09/12 10:42:47;;;;;;;3.37;2.30;;;;;;;21.19;54.90;98984.59;5109860;28;20126;-81
2022/09/12 10:45:28;;;;;;;2.72;2.47;;;;;;;21.22;54.44;98986.00;5119470;27;20039;-81
2022/09/12 10:47:58;;;;;;;4.00;2.40;;;;;;;21.42;57.56;98981.81;5118294;27;20068;-81
2022/09/12 10:50:30;;;;;;;4.80;2.10;;;;;;;21.45;54.70;98987.63;5114084;27;20549;-81
2022/09/12 10:53:14;;;;;;;4.72;1.95;;;;;;;21.68;57.04;98978.22;5103594;28;20245;-81
2022/09/12 10:56:01;;;;;;;3.65;2.20;;;;;;;21.66;53.41;98972.09;5092389;28;20062;-81
2022/09/12 10:58:49;;;;;;;3.35;2.30;;;;;;;21.71;54.27;98979.66;5100190;28;20135;-81
2022/09/12 11:01:27;;;;;;;2.80;2.08;;;;;;;21.77;55.12;98964.75;5105876;28;20486;-81
2022/09/12 11:04:12;;;;;;;3.10;2.50;;;;;;;21.69;53.05;98977.13;5108612;28;20055;-81
2022/09/12 11:06:47;;;;;;;3.38;2.20;;;;;;;21.84;52.95;98968.13;5100422;28;20567;-81
2022/09/12 11:09:21;;;;;;;8.02;1.80;;;;;;;21.84;53.22;98964.53;5110970;28;20047;-81
2022/09/12 11:12:03;;;;;;;2.45;1.60;;;;;;;22.04;52.77;98964.69;5099516;28;20559;-81
2022/09/12 11:14:50;;;;;;;1.80;1.40;;;;;;;22.12;50.96;98955.06;5107712;28;20043;-81
2022/09/12 11:17:25;;;;;;;3.83;1.70;;;;;;;22.28;49.70;98947.66;5110967;28;20039;-81
2022/09/12 11:20:29;;;;;;;2.85;1.50;;;;;;;22.42;48.59;98959.16;5109410;28;20138;-81
2022/09/12 11:23:22;;;;;;;1.83;1.55;;;;;;;22.40;48.61;98955.81;5104304;28;20052;-81
2022/09/12 11:25:56;;;;;;;1.98;1.45;;;;;;;22.61;49.03;98942.91;5111018;28;20047;-81
2022/09/12 11:28:34;;;;;;;2.03;1.55;;;;;;;22.79;48.79;98941.59;5110417;28;20043;-81
2022/09/12 11:31:18;;;;;;;1.50;1.40;;;;;;;22.92;46.06;98931.97;5100292;28;20097;-81
2022/09/12 11:33:46;;;;;;;2.30;1.27;;;;;;;22.79;45.90;98936.06;5108747;27;20138;-82
2022/09/12 11:36:27;;;;;;;1.30;1.20;;;;;;;22.85;46.27;98931.38;5110113;27;20054;-82
2022/09/12 11:39:03;;;;;;;1.75;1.10;;;;;;;23.10;44.43;98927.91;5105036;28;20551;-81
2022/09/12 11:41:32;;;;;;;2.90;1.30;;;;;;;23.34;45.37;98922.69;5109901;28;20090;-82
2022/09/12 11:44:07;;;;;;;1.58;1.38;;;;;;;23.30;44.87;98927.09;5110337;28;20055;-82
2022/09/12 11:46:36;;;;;;;5.90;1.60;;;;;;;23.23;43.83;98916.28;5091989;28;20134;-82
2022/09/12 11:49:12;;;;;;;2.50;1.60;;;;;;;23.16;44.45;98921.25;5090518;28;20089;-82